Airport View

Enter AWOS ICAO identifier for current METAR.

ex. KFNL

KVQQ 171155Z AUTO 36008KT 10SM OVC014 09/07 A2998 RMK AO2

17 Nov 2019 11:59

Frequency: 125.275

Phone: 904-778-6934

Other Area AWOS: KHEG - KNIP - KJAX - KCRG

TAF KVQQ 170520Z 1706/1806 34008KT P6SM OVC018 TEMPO 1706/1710 OVC009 FM171400 34010KT P6SM BKN010 OVC015 FM171500 34008KT P6SM SCT025 SCT060